Time;durP1;ratioP1;P1;durP2;ratioP2;P2;SDS_P1;SDS_P2;PMS_P1;PMS_P2;Temp;Humidity;BMP_temperature;BMP_pressure;BME280_temperature;BME280_humidity;BME280_pressure;Samples;Min_cycle;Max_cycle;Signal;HPM_P1;HPM_P2
2021/11/24 00:00:04;;;;;;;;;;;;;;;13.96;68.68;102520.25;1052526;28;838;-60
2021/11/24 00:00:55;;;;;;;;;;;;;;;13.96;68.94;102529.19;1052856;28;713;-61
2021/11/24 00:01:45;;;;;;;;;;;;;;;13.96;69.38;102510.41;1053013;28;778;-60
2021/11/24 00:02:35;;;;;;;;;;;;;;;13.96;69.01;102521.13;1052660;28;681;-61
2021/11/24 00:03:26;;;;;;;;;;;;;;;13.96;68.86;102521.13;1052850;28;712;-61
2021/11/24 00:04:16;;;;;;;;;;;;;;;13.96;69.49;102522.94;1052365;28;1454;-60
2021/11/24 00:05:07;;;;;;;;;;;;;;;13.97;68.93;102516.66;1052281;28;700;-60
2021/11/24 00:05:57;;;;;;;;;;;;;;;13.96;68.93;102521.13;1052594;28;977;-60
2021/11/24 00:06:47;;;;;;;;;;;;;;;13.96;69.63;102521.13;1052672;28;704;-60
2021/11/24 00:07:40;;;;;;;;;;;;;;;13.96;69.23;102523.81;1053007;28;653;-59
2021/11/24 00:08:30;;;;;;;;;;;;;;;13.95;68.81;102522.09;1052469;28;784;-59
2021/11/24 00:09:20;;;;;;;;;;;;;;;13.95;68.90;102524.75;1052483;28;801;-59
2021/11/24 00:10:11;;;;;;;;;;;;;;;13.96;68.67;102517.59;1052828;28;760;-59
2021/11/24 00:11:01;;;;;;;;;;;;;;;13.95;69.11;102519.41;1052643;28;684;-59
2021/11/24 00:11:52;;;;;;;;;;;;;;;13.94;69.75;102511.44;1054517;28;1546;-60
2021/11/24 00:12:42;;;;;;;;;;;;;;;13.94;68.82;102520.34;1056663;28;928;-59
2021/11/24 00:13:33;;;;;;;;;;;;;;;13.94;69.56;102520.34;1056879;28;655;-60
2021/11/24 00:14:23;;;;;;;;;;;;;;;13.94;68.95;102519.47;1057031;28;804;-59
2021/11/24 00:15:13;;;;;;;;;;;;;;;13.94;69.28;102514.97;1056820;28;638;-59
2021/11/24 00:16:04;;;;;;;;;;;;;;;13.94;69.27;102520.34;1057140;28;702;-60
2021/11/24 00:16:54;;;;;;;;;;;;;;;13.94;69.47;102512.31;1056641;28;913;-62
2021/11/24 00:17:45;;;;;;;;;;;;;;;13.94;69.74;102514.13;1056780;28;1426;-62
2021/11/24 00:18:35;;;;;;;;;;;;;;;13.94;69.16;102512.31;1056978;28;637;-62
2021/11/24 00:19:25;;;;;;;;;;;;;;;13.94;69.40;102509.63;1056743;28;701;-62
2021/11/24 00:20:16;;;;;;;;;;;;;;;13.95;68.94;102514.03;1056935;28;671;-62
2021/11/24 00:21:07;;;;;;;;;;;;;;;13.94;69.42;102511.44;1056633;28;848;-62
2021/11/24 00:21:58;;;;;;;;;;;;;;;13.94;69.57;102506.94;1057007;28;657;-62
2021/11/24 00:22:48;;;;;;;;;;;;;;;13.94;69.74;102503.41;1056635;28;850;-62
2021/11/24 00:23:38;;;;;;;;;;;;;;;13.94;69.12;102506.06;1056742;28;658;-62
2021/11/24 00:24:29;;;;;;;;;;;;;;;13.95;69.00;102507.81;1056838;28;673;-62
2021/11/24 00:25:19;;;;;;;;;;;;;;;13.94;69.49;102506.94;1056502;28;837;-62
2021/11/24 00:26:10;;;;;;;;;;;;;;;13.93;69.27;102501.66;1053004;28;716;-62
2021/11/24 00:27:00;;;;;;;;;;;;;;;13.94;69.30;102503.41;1053439;28;905;-62
2021/11/24 00:27:51;;;;;;;;;;;;;;;13.93;68.83;102502.53;1057426;28;1007;-62
2021/11/24 00:28:41;;;;;;;;;;;;;;;13.94;69.11;102504.25;1057068;28;696;-62
2021/11/24 00:29:31;;;;;;;;;;;;;;;13.93;69.00;102499.84;1056779;28;727;-62
2021/11/24 00:30:22;;;;;;;;;;;;;;;13.94;69.72;102504.25;1056876;28;642;-62
2021/11/24 00:31:12;;;;;;;;;;;;;;;13.94;69.21;102503.41;1056654;28;740;-62
2021/11/24 00:32:03;;;;;;;;;;;;;;;13.93;69.73;102499.84;1053290;28;658;-62
2021/11/24 00:32:55;;;;;;;;;;;;;;;13.92;69.14;102498.13;1052914;28;1002;-62
2021/11/24 00:33:45;;;;;;;;;;;;;;;13.93;69.07;102501.66;1052383;28;693;-61
2021/11/24 00:34:36;;;;;;;;;;;;;;;13.92;69.54;102503.47;1052603;28;698;-62
2021/11/24 00:35:26;;;;;;;;;;;;;;;13.92;69.37;102503.47;1052655;28;844;-62
2021/11/24 00:36:16;;;;;;;;;;;;;;;13.92;69.44;102502.59;1052530;28;634;-62
2021/11/24 00:37:07;;;;;;;;;;;;;;;13.93;69.07;102501.66;1052709;28;664;-61
2021/11/24 00:37:57;;;;;;;;;;;;;;;13.93;69.30;102498.97;1052237;28;1073;-61
2021/11/24 00:38:48;;;;;;;;;;;;;;;13.93;69.53;102498.97;1052743;28;752;-61
2021/11/24 00:39:38;;;;;;;;;;;;;;;13.92;69.84;102502.59;1052292;28;845;-61
2021/11/24 00:40:28;;;;;;;;;;;;;;;13.92;69.12;102502.59;1052537;28;783;-62
2021/11/24 00:41:19;;;;;;;;;;;;;;;13.91;69.83;102501.75;1052496;28;752;-62
2021/11/24 00:42:09;;;;;;;;;;;;;;;13.92;69.83;102502.59;1052491;28;642;-62
2021/11/24 00:43:00;;;;;;;;;;;;;;;13.91;69.76;102501.75;1052626;28;654;-62
2021/11/24 00:43:50;;;;;;;;;;;;;;;13.92;69.02;102502.59;1052396;28;941;-62
2021/11/24 00:44:41;;;;;;;;;;;;;;;13.90;69.55;102510.72;1052450;28;1886;-62
2021/11/24 00:45:31;;;;;;;;;;;;;;;13.90;69.84;102495.50;1052217;28;662;-62
2021/11/24 00:46:22;;;;;;;;;;;;;;;13.91;69.01;102504.41;1052424;28;1466;-60
2021/11/24 00:47:12;;;;;;;;;;;;;;;13.91;69.89;102499.06;1052724;28;698;-61
2021/11/24 00:48:02;;;;;;;;;;;;;;;13.91;69.14;102496.38;1051643;28;1002;-62
2021/11/24 00:48:53;;;;;;;;;;;;;;;13.91;69.66;102496.38;1052081;28;630;-62
2021/11/24 00:49:43;;;;;;;;;;;;;;;13.91;69.70;102499.06;1051789;28;755;-62
2021/11/24 00:50:34;;;;;;;;;;;;;;;13.90;68.95;102497.31;1051806;28;746;-62
2021/11/24 00:51:24;;;;;;;;;;;;;;;13.90;69.81;102494.66;1055761;28;1553;-62
2021/11/24 00:52:14;;;;;;;;;;;;;;;13.90;69.94;102494.66;1056593;28;884;-62
2021/11/24 00:53:05;;;;;;;;;;;;;;;13.89;69.70;102496.47;1056910;28;701;-62
2021/11/24 00:53:55;;;;;;;;;;;;;;;13.90;69.13;102494.66;1056598;28;642;-63
2021/11/24 00:54:46;;;;;;;;;;;;;;;13.89;69.75;102498.28;1056779;28;645;-62
2021/11/24 00:55:36;;;;;;;;;;;;;;;13.90;69.04;102495.50;1056788;28;1188;-62
2021/11/24 00:56:26;;;;;;;;;;;;;;;13.89;70.02;102498.28;1056662;28;764;-62
2021/11/24 00:57:17;;;;;;;;;;;;;;;13.90;69.69;102500.88;1056851;28;685;-62
2021/11/24 00:58:07;;;;;;;;;;;;;;;13.89;69.47;102493.78;1056417;28;810;-62
2021/11/24 00:58:58;;;;;;;;;;;;;;;13.89;69.66;102498.28;1056708;28;676;-62
2021/11/24 00:59:48;;;;;;;;;;;;;;;13.90;69.62;102494.66;1056483;28;620;-62
2021/11/24 01:00:39;;;;;;;;;;;;;;;13.89;69.82;102492.91;1056619;28;833;-62
2021/11/24 01:01:29;;;;;;;;;;;;;;;13.89;69.03;102492.91;1056930;28;761;-62
2021/11/24 01:02:19;;;;;;;;;;;;;;;13.89;69.25;102492.91;1056601;28;746;-62
2021/11/24 01:03:10;;;;;;;;;;;;;;;13.88;69.56;102492.03;1056803;28;733;-62
2021/11/24 01:04:00;;;;;;;;;;;;;;;13.88;69.91;102489.38;1056384;28;1477;-62
2021/11/24 01:04:51;;;;;;;;;;;;;;;13.89;69.32;102493.78;1056347;28;1901;-62
2021/11/24 01:05:47;;;;;;;;;;;;;;;13.88;69.78;102491.19;1056646;28;626;-62
2021/11/24 01:06:38;;;;;;;;;;;;;;;13.88;69.73;102494.72;1056478;28;857;-61
2021/11/24 01:07:28;;;;;;;;;;;;;;;13.87;69.02;102490.31;1056732;28;782;-62
2021/11/24 01:08:18;;;;;;;;;;;;;;;13.87;69.51;102492.13;1056385;28;713;-61
2021/11/24 01:09:09;;;;;;;;;;;;;;;13.87;69.84;102494.81;1056427;28;748;-61
2021/11/24 01:09:59;;;;;;;;;;;;;;;13.87;69.55;102490.31;1056263;28;811;-61
2021/11/24 01:10:50;;;;;;;;;;;;;;;13.87;69.73;102494.81;1054467;28;1715;-62
2021/11/24 01:11:40;;;;;;;;;;;;;;;13.87;69.74;102490.31;1052010;28;654;-62
2021/11/24 01:12:30;;;;;;;;;;;;;;;13.87;69.44;102490.31;1051712;28;789;-62
2021/11/24 01:13:21;;;;;;;;;;;;;;;13.86;69.72;102480.53;1051796;28;916;-62
2021/11/24 01:14:11;;;;;;;;;;;;;;;13.86;68.95;102482.34;1051500;28;822;-62
2021/11/24 01:15:02;;;;;;;;;;;;;;;13.87;69.01;102484.09;1051778;28;881;-62
2021/11/24 01:15:52;;;;;;;;;;;;;;;13.88;69.58;102485.81;1052077;28;758;-62
2021/11/24 01:16:44;;;;;;;;;;;;;;;13.87;70.03;102486.75;1051650;28;697;-62
2021/11/24 01:17:34;;;;;;;;;;;;;;;13.87;69.09;102489.44;1051544;28;844;-61
2021/11/24 01:18:25;;;;;;;;;;;;;;;13.85;69.89;102485.97;1051805;28;801;-61
2021/11/24 01:19:15;;;;;;;;;;;;;;;13.85;69.22;102491.31;1051913;28;802;-61
2021/11/24 01:20:06;;;;;;;;;;;;;;;13.85;69.45;102477.94;1051714;28;726;-61
2021/11/24 01:20:56;;;;;;;;;;;;;;;13.85;69.24;102483.28;1051960;28;667;-61
2021/11/24 01:21:46;;;;;;;;;;;;;;;13.84;69.12;102473.53;1051677;28;838;-61
2021/11/24 01:22:37;;;;;;;;;;;;;;;13.83;69.13;102472.66;1051867;28;716;-60
2021/11/24 01:23:27;;;;;;;;;;;;;;;13.83;70.06;102477.16;1051460;28;840;-60
2021/11/24 01:24:18;;;;;;;;;;;;;;;13.83;70.15;102477.16;1051797;28;793;-60
2021/11/24 01:25:08;;;;;;;;;;;;;;;13.83;69.14;102471.78;1051399;28;714;-61
2021/11/24 01:25:59;;;;;;;;;;;;;;;13.83;69.20;102475.31;1051537;28;913;-63
2021/11/24 01:26:49;;;;;;;;;;;;;;;13.83;69.48;102478.00;1051872;28;634;-61
2021/11/24 01:27:41;;;;;;;;;;;;;;;13.84;69.70;102474.38;1051500;28;752;-61
2021/11/24 01:28:31;;;;;;;;;;;;;;;13.84;69.96;102470.84;1051589;28;755;-61
2021/11/24 01:29:22;;;;;;;;;;;;;;;13.83;69.95;102472.66;1051708;28;760;-62
2021/11/24 01:30:12;;;;;;;;;;;;;;;13.81;69.54;102469.19;1051986;28;722;-62
2021/11/24 01:31:03;;;;;;;;;;;;;;;13.82;69.18;102472.72;1052786;28;709;-62
2021/11/24 01:31:53;;;;;;;;;;;;;;;13.83;69.75;102467.28;1052203;28;934;-61
2021/11/24 01:32:43;;;;;;;;;;;;;;;13.82;69.21;102457.53;1052035;28;1485;-61
2021/11/24 01:33:34;;;;;;;;;;;;;;;13.83;69.82;102471.78;1051931;28;720;-62
2021/11/24 01:34:24;;;;;;;;;;;;;;;13.83;69.57;102461.94;1051841;28;782;-62
2021/11/24 01:35:15;;;;;;;;;;;;;;;13.83;69.15;102463.75;1052153;28;822;-62
2021/11/24 01:36:05;;;;;;;;;;;;;;;13.83;69.14;102464.63;1053168;28;900;-61
2021/11/24 01:36:56;;;;;;;;;;;;;;;13.83;69.54;102463.75;1052297;28;715;-61
2021/11/24 01:37:46;;;;;;;;;;;;;;;13.83;69.76;102463.75;1052352;28;691;-62
2021/11/24 01:38:37;;;;;;;;;;;;;;;13.82;69.86;102462.00;1052154;28;1044;-62
2021/11/24 01:39:27;;;;;;;;;;;;;;;13.81;69.67;102469.19;1052191;28;721;-62
2021/11/24 01:40:17;;;;;;;;;;;;;;;13.82;69.47;102465.56;1051964;28;945;-62
2021/11/24 01:41:08;;;;;;;;;;;;;;;13.82;70.04;102465.56;1051905;28;786;-62
2021/11/24 01:41:58;;;;;;;;;;;;;;;13.81;69.72;102457.59;1053285;28;736;-62
2021/11/24 01:42:49;;;;;;;;;;;;;;;13.82;69.85;102464.69;1052186;28;638;-62
2021/11/24 01:43:39;;;;;;;;;;;;;;;13.81;70.05;102463.81;1052187;28;666;-62
2021/11/24 01:44:30;;;;;;;;;;;;;;;13.81;69.12;102473.66;1052514;28;802;-62
2021/11/24 01:45:20;;;;;;;;;;;;;;;13.82;69.86;102468.25;1052213;28;785;-62
2021/11/24 01:46:10;;;;;;;;;;;;;;;13.81;69.45;102468.31;1051956;28;827;-63
2021/11/24 01:47:01;;;;;;;;;;;;;;;13.81;69.26;102466.50;1052306;28;680;-61
2021/11/24 01:47:51;;;;;;;;;;;;;;;13.81;69.16;102471.00;1051915;28;1342;-61
2021/11/24 01:48:42;;;;;;;;;;;;;;;13.80;69.47;102470.13;1051900;28;747;-61
2021/11/24 01:49:32;;;;;;;;;;;;;;;13.82;69.95;102464.69;1051750;28;745;-59
2021/11/24 01:50:23;;;;;;;;;;;;;;;13.81;69.85;102462.97;1052193;28;1504;-60
2021/11/24 01:51:13;;;;;;;;;;;;;;;13.81;69.08;102462.97;1052126;28;722;-60
2021/11/24 01:52:04;;;;;;;;;;;;;;;13.81;69.69;102462.97;1054340;28;1764;-59
2021/11/24 01:52:54;;;;;;;;;;;;;;;13.80;69.40;102462.09;1057458;28;925;-59
2021/11/24 01:53:45;;;;;;;;;;;;;;;13.80;69.39;102463.91;1056393;28;700;-60
2021/11/24 01:54:36;;;;;;;;;;;;;;;13.80;69.57;102458.53;1056403;28;809;-60
2021/11/24 01:55:26;;;;;;;;;;;;;;;13.81;70.05;102462.97;1056513;28;1203;-59
2021/11/24 01:56:16;;;;;;;;;;;;;;;13.80;69.24;102463.91;1056287;28;760;-59
2021/11/24 01:57:07;;;;;;;;;;;;;;;13.79;69.34;102457.69;1056445;28;934;-60
2021/11/24 01:57:57;;;;;;;;;;;;;;;13.78;70.18;102463.16;1057518;28;827;-60
2021/11/24 01:58:48;;;;;;;;;;;;;;;13.78;70.14;102457.78;1056257;28;820;-60
2021/11/24 01:59:38;;;;;;;;;;;;;;;13.78;70.01;102453.28;1056236;28;638;-60
2021/11/24 02:00:29;;;;;;;;;;;;;;;13.79;69.55;102455.00;1056628;28;789;-61
2021/11/24 02:01:19;;;;;;;;;;;;;;;13.80;69.41;102455.84;1056044;28;882;-60
2021/11/24 02:02:10;;;;;;;;;;;;;;;13.80;69.43;102455.84;1056430;28;855;-60
2021/11/24 02:03:02;;;;;;;;;;;;;;;13.79;69.51;102454.16;1056389;28;1070;-60
2021/11/24 02:03:52;;;;;;;;;;;;;;;13.78;69.19;102455.09;1056257;28;642;-60
2021/11/24 02:04:37;;;;;;;;;;;;;;;13.78;70.13;102455.09;1053653;27;1382;-59
2021/11/24 02:05:27;;;;;;;;;;;;;;;13.79;69.26;102456.84;1051743;28;909;-59
2021/11/24 02:06:18;;;;;;;;;;;;;;;13.78;69.29;102452.44;1053575;28;802;-60
2021/11/24 02:07:08;;;;;;;;;;;;;;;13.79;69.33;102454.16;1053479;28;823;-60
2021/11/24 02:07:59;;;;;;;;;;;;;;;13.79;69.14;102449.63;1053640;28;789;-60
2021/11/24 02:08:49;;;;;;;;;;;;;;;13.77;69.68;102450.69;1053571;28;697;-60
2021/11/24 02:09:39;;;;;;;;;;;;;;;13.76;69.88;102449.81;1053326;28;1598;-59
2021/11/24 02:10:30;;;;;;;;;;;;;;;13.77;69.79;102440.84;1053514;28;790;-61
2021/11/24 02:11:20;;;;;;;;;;;;;;;13.77;69.32;102443.53;1053717;28;840;-60
2021/11/24 02:12:11;;;;;;;;;;;;;;;13.77;69.69;102440.84;1052813;28;669;-61
2021/11/24 02:13:02;;;;;;;;;;;;;;;13.79;69.81;102440.75;1052876;28;610;-61
2021/11/24 02:13:52;;;;;;;;;;;;;;;13.75;69.48;102434.69;1053499;28;1156;-60
2021/11/24 02:14:43;;;;;;;;;;;;;;;13.77;69.42;102435.47;1053512;28;689;-60
2021/11/24 02:15:33;;;;;;;;;;;;;;;13.75;70.30;102437.38;1053435;28;827;-60
2021/11/24 02:16:24;;;;;;;;;;;;;;;13.76;70.11;102435.56;1053668;28;714;-60
2021/11/24 02:17:15;;;;;;;;;;;;;;;13.77;69.77;102435.47;1053599;28;768;-62
2021/11/24 02:18:05;;;;;;;;;;;;;;;13.76;70.13;102433.75;1053539;28;862;-61
2021/11/24 02:18:56;;;;;;;;;;;;;;;13.76;70.18;102428.38;1053441;28;693;-62
2021/11/24 02:19:46;;;;;;;;;;;;;;;13.77;70.17;102430.13;1053463;28;850;-63
2021/11/24 02:20:36;;;;;;;;;;;;;;;13.76;70.07;102428.38;1053440;28;1119;-62
2021/11/24 02:21:27;;;;;;;;;;;;;;;13.77;70.14;102429.25;1053551;28;772;-62
2021/11/24 02:22:17;;;;;;;;;;;;;;;13.75;69.53;102423.09;1053519;28;777;-62
2021/11/24 02:23:08;;;;;;;;;;;;;;;13.74;70.28;102421.38;1053528;28;799;-62
2021/11/24 02:23:58;;;;;;;;;;;;;;;13.74;69.72;102418.69;1053407;28;850;-62
2021/11/24 02:24:49;;;;;;;;;;;;;;;13.73;69.32;102423.19;1053583;28;641;-62
2021/11/24 02:25:39;;;;;;;;;;;;;;;13.74;69.46;102424.06;1053507;28;704;-62
2021/11/24 02:26:29;;;;;;;;;;;;;;;13.74;70.09;102418.69;1053450;28;768;-62
2021/11/24 02:27:20;;;;;;;;;;;;;;;13.73;70.20;102417.81;1053558;28;752;-62
2021/11/24 02:28:10;;;;;;;;;;;;;;;13.72;69.85;102415.22;1053402;28;834;-62
2021/11/24 02:29:01;;;;;;;;;;;;;;;13.72;69.42;102420.59;1053514;28;655;-62
2021/11/24 02:29:51;;;;;;;;;;;;;;;13.73;70.01;102415.16;1053290;28;1655;-62
2021/11/24 02:30:41;;;;;;;;;;;;;;;13.74;69.88;102414.19;1056401;28;633;-62
2021/11/24 02:31:32;;;;;;;;;;;;;;;13.75;70.17;102415.94;1056297;28;765;-62
2021/11/24 02:32:22;;;;;;;;;;;;;;;13.74;69.26;102413.34;1057020;28;811;-62
2021/11/24 02:33:13;;;;;;;;;;;;;;;13.74;70.10;102416.00;1057275;28;754;-62
2021/11/24 02:34:03;;;;;;;;;;;;;;;13.73;69.99;102417.81;1053103;28;1392;-62
2021/11/24 02:34:53;;;;;;;;;;;;;;;13.74;69.26;102405.31;1053089;28;711;-61
2021/11/24 02:35:44;;;;;;;;;;;;;;;13.74;70.09;102410.66;1057448;28;633;-60
2021/11/24 02:36:35;;;;;;;;;;;;;;;13.73;70.03;102401.75;1056988;28;714;-61
2021/11/24 02:37:25;;;;;;;;;;;;;;;13.74;69.29;102402.63;1056960;28;821;-62
2021/11/24 02:38:15;;;;;;;;;;;;;;;13.74;70.02;102399.94;1057058;28;741;-62
2021/11/24 02:39:06;;;;;;;;;;;;;;;13.73;69.45;102406.25;1053626;28;633;-62
2021/11/24 02:39:56;;;;;;;;;;;;;;;13.73;70.08;102406.25;1053757;28;731;-62
2021/11/24 02:40:47;;;;;;;;;;;;;;;13.73;69.50;102403.56;1057964;28;928;-62
2021/11/24 02:41:37;;;;;;;;;;;;;;;13.72;69.44;102404.50;1056996;28;633;-62
2021/11/24 02:42:28;;;;;;;;;;;;;;;13.72;69.54;102404.50;1056935;28;820;-60
2021/11/24 02:43:18;;;;;;;;;;;;;;;13.70;70.27;102401.91;1057027;28;865;-61
2021/11/24 02:44:09;;;;;;;;;;;;;;;13.70;70.14;102401.03;1056938;28;1901;-59
2021/11/24 02:44:59;;;;;;;;;;;;;;;13.70;69.81;102399.22;1056903;28;850;-59
2021/11/24 02:45:50;;;;;;;;;;;;;;;13.71;69.58;102402.78;1057094;28;617;-59
2021/11/24 02:46:40;;;;;;;;;;;;;;;13.72;69.84;102400.03;1053464;28;1550;-60
2021/11/24 02:47:31;;;;;;;;;;;;;;;13.71;69.49;102403.66;1053473;28;791;-60
2021/11/24 02:48:21;;;;;;;;;;;;;;;13.72;69.72;102399.16;1056592;28;747;-59
2021/11/24 02:49:11;;;;;;;;;;;;;;;13.73;69.39;102390.16;1052977;28;1547;-59
2021/11/24 02:50:03;;;;;;;;;;;;;;;13.71;69.93;102392.94;1053480;28;814;-59
2021/11/24 02:50:54;;;;;;;;;;;;;;;13.72;70.02;102391.13;1053420;28;692;-60
2021/11/24 02:51:44;;;;;;;;;;;;;;;13.71;69.79;102387.56;1052866;28;629;-59
2021/11/24 02:52:35;;;;;;;;;;;;;;;13.70;69.98;102393.88;1053325;28;804;-59
2021/11/24 02:53:25;;;;;;;;;;;;;;;13.69;69.65;102393.94;1053301;28;846;-59
2021/11/24 02:54:16;;;;;;;;;;;;;;;13.69;70.21;102392.13;1053325;28;745;-60
2021/11/24 02:55:06;;;;;;;;;;;;;;;13.69;69.60;102392.13;1053326;28;746;-60
2021/11/24 02:55:57;;;;;;;;;;;;;;;13.68;69.37;102381.50;1049181;28;642;-60
2021/11/24 02:56:47;;;;;;;;;;;;;;;13.70;69.57;102384.97;1049210;28;684;-60
2021/11/24 02:57:37;;;;;;;;;;;;;;;13.69;69.45;102383.25;1049090;28;955;-61
2021/11/24 02:58:28;;;;;;;;;;;;;;;13.69;69.73;102385.91;1049201;28;733;-60
2021/11/24 02:59:18;;;;;;;;;;;;;;;13.68;69.32;102377.00;1048996;28;746;-60
2021/11/24 03:00:09;;;;;;;;;;;;;;;13.70;69.57;102387.66;1049170;28;724;-61
2021/11/24 03:00:59;;;;;;;;;;;;;;;13.69;69.81;102380.56;1048610;28;819;-61
2021/11/24 03:01:49;;;;;;;;;;;;;;;13.70;70.02;102377.81;1048488;28;951;-61
2021/11/24 03:02:40;;;;;;;;;;;;;;;13.69;69.45;102380.56;1049055;28;689;-61
2021/11/24 03:03:30;;;;;;;;;;;;;;;13.68;70.12;102360.06;1049270;28;748;-61
2021/11/24 03:04:21;;;;;;;;;;;;;;;13.68;69.46;102370.78;1050073;28;1987;-61
2021/11/24 03:05:11;;;;;;;;;;;;;;;13.69;70.13;102367.16;1049066;28;725;-61
2021/11/24 03:06:02;;;;;;;;;;;;;;;13.68;69.66;102368.09;1049022;28;854;-61
2021/11/24 03:06:52;;;;;;;;;;;;;;;13.67;70.01;102364.56;1049100;28;618;-61
2021/11/24 03:07:43;;;;;;;;;;;;;;;13.66;69.87;102357.47;1049072;28;845;-62
2021/11/24 03:08:33;;;;;;;;;;;;;;;13.65;70.00;102366.44;1050714;28;1682;-61
2021/11/24 03:09:23;;;;;;;;;;;;;;;13.66;70.25;102357.47;1053360;28;720;-61
2021/11/24 03:10:14;;;;;;;;;;;;;;;13.66;70.29;102362.84;1053193;28;780;-61
2021/11/24 03:11:05;;;;;;;;;;;;;;;13.67;69.79;102355.66;1048957;28;818;-61
2021/11/24 03:11:55;;;;;;;;;;;;;;;13.66;69.98;102360.16;1048510;28;950;-62
2021/11/24 03:12:46;;;;;;;;;;;;;;;13.67;69.68;102358.34;1049689;28;702;-62
2021/11/24 03:13:36;;;;;;;;;;;;;;;13.68;69.38;102360.94;1048668;28;812;-62
2021/11/24 03:14:27;;;;;;;;;;;;;;;13.68;69.40;102352.91;1048610;28;840;-62
2021/11/24 03:15:17;;;;;;;;;;;;;;;13.67;70.39;102358.34;1048567;28;790;-62
2021/11/24 03:16:07;;;;;;;;;;;;;;;13.68;69.81;102354.72;1045161;28;905;-62
2021/11/24 03:16:58;;;;;;;;;;;;;;;13.67;69.50;102351.16;1045997;28;672;-62
2021/11/24 03:17:48;;;;;;;;;;;;;;;13.68;69.33;102347.53;1045901;28;621;-62
2021/11/24 03:18:39;;;;;;;;;;;;;;;13.66;70.05;102352.13;1045657;28;1056;-62
2021/11/24 03:19:29;;;;;;;;;;;;;;;13.68;69.98;102349.34;1046934;28;1031;-62
2021/11/24 03:20:20;;;;;;;;;;;;;;;13.68;70.05;102352.03;1045720;28;794;-62
2021/11/24 03:21:10;;;;;;;;;;;;;;;13.69;69.45;102353.75;1046933;28;818;-62
2021/11/24 03:22:01;;;;;;;;;;;;;;;13.69;69.63;102356.44;1045828;28;819;-62
2021/11/24 03:22:51;;;;;;;;;;;;;;;13.68;69.23;102355.59;1045836;28;697;-61
2021/11/24 03:23:42;;;;;;;;;;;;;;;13.67;69.53;102347.63;1045775;28;636;-62
2021/11/24 03:24:32;;;;;;;;;;;;;;;13.66;70.01;102345.88;1045992;28;1890;-62
2021/11/24 03:25:23;;;;;;;;;;;;;;;13.66;69.55;102346.75;1046195;28;748;-62
2021/11/24 03:26:14;;;;;;;;;;;;;;;13.66;70.07;102341.41;1045783;28;742;-62
2021/11/24 03:27:05;;;;;;;;;;;;;;;13.66;69.43;102341.41;1046907;28;680;-61
2021/11/24 03:27:55;;;;;;;;;;;;;;;13.67;69.69;102344.94;1045590;28;808;-62
2021/11/24 03:28:45;;;;;;;;;;;;;;;13.66;70.16;102343.22;1049914;28;947;-62
2021/11/24 03:29:36;;;;;;;;;;;;;;;13.65;69.55;102339.66;1050381;28;660;-62
2021/11/24 03:30:26;;;;;;;;;;;;;;;13.65;70.04;102339.66;1050417;28;680;-62
2021/11/24 03:31:17;;;;;;;;;;;;;;;13.65;70.17;102339.66;1049890;28;622;-62
2021/11/24 03:32:07;;;;;;;;;;;;;;;13.66;69.55;102338.72;1049822;28;630;-62
2021/11/24 03:32:57;;;;;;;;;;;;;;;13.65;70.41;102338.81;1049926;28;914;-62
2021/11/24 03:33:48;;;;;;;;;;;;;;;13.64;69.98;102342.44;1051149;28;703;-62
2021/11/24 03:34:38;;;;;;;;;;;;;;;13.65;69.62;102336.13;1049954;28;681;-61
2021/11/24 03:35:29;;;;;;;;;;;;;;;13.67;69.83;102336.91;1049787;28;738;-61
2021/11/24 03:36:19;;;;;;;;;;;;;;;13.67;69.82;102337.78;1049824;28;632;-61
2021/11/24 03:37:10;;;;;;;;;;;;;;;13.67;69.39;102331.56;1049808;28;858;-60
2021/11/24 03:38:00;;;;;;;;;;;;;;;13.67;69.56;102331.56;1049745;28;763;-62
2021/11/24 03:38:51;;;;;;;;;;;;;;;13.68;69.73;102335.97;1049912;28;680;-61
2021/11/24 03:39:41;;;;;;;;;;;;;;;13.66;69.34;102324.47;1049732;28;744;-61
2021/11/24 03:40:31;;;;;;;;;;;;;;;13.67;69.98;102326.19;1049803;28;656;-61
2021/11/24 03:41:22;;;;;;;;;;;;;;;13.66;69.60;102322.66;1049764;28;941;-62
2021/11/24 03:42:12;;;;;;;;;;;;;;;13.66;69.43;102321.78;1049816;28;696;-62
2021/11/24 03:43:03;;;;;;;;;;;;;;;13.65;69.88;102320.91;1049927;28;725;-62
2021/11/24 03:43:53;;;;;;;;;;;;;;;13.65;69.34;102320.91;1051076;28;680;-62
2021/11/24 03:44:44;;;;;;;;;;;;;;;13.64;69.49;102321.88;1049868;28;703;-61
2021/11/24 03:45:34;;;;;;;;;;;;;;;13.65;70.16;102323.59;1049740;28;744;-61
2021/11/24 03:46:24;;;;;;;;;;;;;;;13.64;69.38;102321.88;1048588;28;1472;-62
2021/11/24 03:47:15;;;;;;;;;;;;;;;13.64;69.68;102321.00;1047840;28;749;-62
2021/11/24 03:48:05;;;;;;;;;;;;;;;13.65;69.66;102314.69;1049292;28;1648;-62
2021/11/24 03:48:56;;;;;;;;;;;;;;;13.67;69.61;102320.84;1050328;28;676;-62
2021/11/24 03:49:46;;;;;;;;;;;;;;;13.65;69.61;102320.91;1050173;28;866;-62
2021/11/24 03:50:37;;;;;;;;;;;;;;;13.64;69.55;102311.16;1050307;28;724;-62
2021/11/24 03:51:27;;;;;;;;;;;;;;;13.64;70.26;102312.97;1050191;28;810;-62
2021/11/24 03:52:17;;;;;;;;;;;;;;;13.64;70.09;102311.16;1050309;28;795;-62
2021/11/24 03:53:08;;;;;;;;;;;;;;;13.65;70.34;102312.00;1049820;28;744;-62
2021/11/24 03:53:58;;;;;;;;;;;;;;;13.64;70.40;102304.91;1050342;28;841;-62
2021/11/24 03:54:49;;;;;;;;;;;;;;;13.63;69.86;102303.19;1050398;28;715;-62
2021/11/24 03:55:39;;;;;;;;;;;;;;;13.63;69.99;102308.53;1050194;28;1293;-63
2021/11/24 03:56:30;;;;;;;;;;;;;;;13.62;70.27;102296.97;1050294;28;712;-62
2021/11/24 03:57:20;;;;;;;;;;;;;;;13.61;69.74;102308.66;1049625;28;710;-62
2021/11/24 03:58:10;;;;;;;;;;;;;;;13.62;69.58;102313.03;1050183;28;840;-62
2021/11/24 03:59:01;;;;;;;;;;;;;;;13.62;69.57;102310.34;1050325;28;818;-62
2021/11/24 03:59:51;;;;;;;;;;;;;;;13.62;69.98;102306.81;1050190;28;793;-62
2021/11/24 04:00:42;;;;;;;;;;;;;;;13.61;69.77;102314.03;1049766;28;701;-62
2021/11/24 04:01:32;;;;;;;;;;;;;;;13.61;69.54;102311.34;1049791;28;737;-62
2021/11/24 04:02:22;;;;;;;;;;;;;;;13.60;70.08;102309.59;1049600;28;1060;-62
2021/11/24 04:03:13;;;;;;;;;;;;;;;13.60;70.10;102308.75;1049785;28;736;-62
2021/11/24 04:04:03;;;;;;;;;;;;;;;13.60;69.67;102308.75;1049620;28;972;-62
2021/11/24 04:04:54;;;;;;;;;;;;;;;13.61;69.53;102310.47;1049750;28;688;-62
2021/11/24 04:05:44;;;;;;;;;;;;;;;13.59;69.61;102302.53;1050186;28;670;-62
2021/11/24 04:06:35;;;;;;;;;;;;;;;13.60;70.42;102306.06;1050277;28;755;-62
2021/11/24 04:07:25;;;;;;;;;;;;;;;13.61;70.19;102305.97;1048868;28;1544;-62
2021/11/24 04:08:15;;;;;;;;;;;;;;;13.62;69.46;102307.69;1047802;28;1003;-62
2021/11/24 04:09:06;;;;;;;;;;;;;;;13.62;69.52;102306.81;1045362;28;614;-62
2021/11/24 04:09:56;;;;;;;;;;;;;;;13.62;69.52;102313.03;1046380;28;677;-62
2021/11/24 04:10:47;;;;;;;;;;;;;;;13.63;69.83;102308.53;1050798;28;784;-62
2021/11/24 04:11:37;;;;;;;;;;;;;;;13.60;70.08;102303.38;1045279;28;652;-62
2021/11/24 04:12:27;;;;;;;;;;;;;;;13.62;70.36;102306.81;1046259;28;800;-62
2021/11/24 04:13:18;;;;;;;;;;;;;;;13.62;69.74;102309.50;1050039;28;814;-62
2021/11/24 04:14:09;;;;;;;;;;;;;;;13.62;70.21;102307.69;1049695;28;853;-62
2021/11/24 04:14:59;;;;;;;;;;;;;;;13.62;69.53;102296.09;1050328;28;893;-62
2021/11/24 04:15:50;;;;;;;;;;;;;;;13.62;70.07;102301.47;1049563;28;1715;-62
2021/11/24 04:16:40;;;;;;;;;;;;;;;13.61;69.99;102299.75;1049434;28;850;-61
2021/11/24 04:17:30;;;;;;;;;;;;;;;13.62;70.19;102298.78;1046576;28;746;-62
2021/11/24 04:18:21;;;;;;;;;;;;;;;13.62;69.24;102296.09;1048555;28;796;-61
2021/11/24 04:19:11;;;;;;;;;;;;;;;13.62;70.26;102296.09;1050115;28;939;-61
2021/11/24 04:20:02;;;;;;;;;;;;;;;13.62;69.27;102298.78;1049770;28;671;-61
2021/11/24 04:20:55;;;;;;;;;;;;;;;13.62;69.70;102290.75;1048961;28;849;-61
2021/11/24 04:21:46;;;;;;;;;;;;;;;13.62;69.74;102296.97;1049724;28;758;-61
2021/11/24 04:22:36;;;;;;;;;;;;;;;13.61;69.77;102292.59;1050198;28;674;-61
2021/11/24 04:23:27;;;;;;;;;;;;;;;13.61;69.96;102289.91;1050143;28;778;-61
2021/11/24 04:24:18;;;;;;;;;;;;;;;13.62;69.47;102285.38;1050022;28;1906;-61
2021/11/24 04:25:09;;;;;;;;;;;;;;;13.61;69.92;102289.91;1049508;28;949;-61